Time;durP1;ratioP1;P1;durP2;ratioP2;P2;SDS_P1;SDS_P2;PMS_P1;PMS_P2;Temp;Humidity;BMP_temperature;BMP_pressure;BME280_temperature;BME280_humidity;BME280_pressure;Samples;Min_cycle;Max_cycle;Signal;HPM_P1;HPM_P2
2022/05/25 00:01:59;;;;;;;12.45;8.68;;;9.10;99.90;;;;;;5093085;28;20166;-65
2022/05/25 00:04:24;;;;;;;10.02;8.50;;;10.00;99.90;;;;;;5092896;28;20048;-65
2022/05/25 00:06:50;;;;;;;9.77;8.43;;;8.90;99.90;;;;;;5092921;28;20089;-64
2022/05/25 00:09:16;;;;;;;12.52;8.43;;;9.90;99.90;;;;;;5092741;28;20123;-66
2022/05/25 00:11:42;;;;;;;12.88;9.15;;;8.90;99.90;;;;;;5092836;28;20399;-65
2022/05/25 00:14:08;;;;;;;14.38;9.55;;;9.10;99.90;;;;;;5091715;28;20059;-65
2022/05/25 00:16:34;;;;;;;11.38;8.70;;;9.10;99.90;;;;;;5092843;28;20036;-65
2022/05/25 00:21:44;;;;;;;13.00;9.65;;;9.20;99.90;;;;;;5092614;28;20454;-65
2022/05/25 00:24:10;;;;;;;13.18;10.07;;;9.40;99.90;;;;;;5092799;28;20040;-65
2022/05/25 00:26:36;;;;;;;14.30;9.73;;;9.00;99.90;;;;;;5092560;28;20523;-66
2022/05/25 00:29:03;;;;;;;17.70;10.68;;;10.00;99.90;;;;;;5092438;28;20087;-64
2022/05/25 00:31:29;;;;;;;17.92;10.43;;;9.00;99.90;;;;;;5092603;28;20052;-65
2022/05/25 00:33:54;;;;;;;13.80;9.50;;;9.40;99.90;;;;;;5092526;28;20135;-64
2022/05/25 00:36:20;;;;;;;13.40;9.68;;;9.20;99.90;;;;;;5092475;28;20494;-64
2022/05/25 00:38:46;;;;;;;14.95;10.45;;;9.00;99.90;;;;;;5092490;28;20051;-64
2022/05/25 00:41:11;;;;;;;12.40;10.27;;;9.90;99.90;;;;;;5092339;28;20380;-64
2022/05/25 00:43:37;;;;;;;17.52;10.55;;;9.20;99.90;;;;;;5091141;28;20077;-65
2022/05/25 00:46:10;;;;;;;14.52;10.63;;;9.20;99.90;;;;;;5091296;28;20048;-64
2022/05/25 00:48:40;;;;;;;14.90;10.77;;;9.20;99.90;;;;;;5092594;28;20052;-64
2022/05/25 00:51:15;;;;;;;15.25;11.20;;;10.10;99.90;;;;;;5092116;28;20048;-64
2022/05/25 00:53:48;;;;;;;13.45;10.10;;;9.00;99.90;;;;;;5092526;28;20048;-64
2022/05/25 00:56:19;;;;;;;15.02;10.80;;;9.70;99.90;;;;;;5092461;28;20121;-64
2022/05/25 00:58:52;;;;;;;17.35;11.35;;;9.80;99.90;;;;;;5092364;28;20040;-64
2022/05/25 01:01:17;;;;;;;17.08;11.77;;;9.00;99.90;;;;;;5092169;28;20033;-65
2022/05/25 01:03:43;;;;;;;17.55;12.30;;;9.90;99.90;;;;;;5092380;28;20421;-65
2022/05/25 01:06:19;;;;;;;19.42;11.98;;;9.20;99.90;;;;;;5092612;28;20036;-64
2022/05/25 01:09:12;;;;;;;14.57;11.45;;;9.10;99.90;;;;;;5092230;28;20052;-64
2022/05/25 01:12:21;;;;;;;18.58;11.40;;;8.80;99.90;;;;;;5091996;28;20503;-64
2022/05/25 01:15:14;;;;;;;16.58;12.50;;;8.60;99.90;;;;;;5049534;28;20124;-65
2022/05/25 01:17:55;;;;;;;16.40;13.05;;;8.70;99.90;;;;;;5092106;28;20091;-64
2022/05/25 01:20:36;;;;;;;20.83;13.43;;;8.90;99.90;;;;;;5091949;28;20040;-65
2022/05/25 01:23:58;;;;;;;21.98;13.57;;;9.10;99.90;;;;;;5092075;28;20040;-64
2022/05/25 01:26:39;;;;;;;21.60;13.77;;;8.60;99.90;;;;;;5068437;28;20632;-65
2022/05/25 01:29:13;;;;;;;22.90;13.90;;;8.80;99.90;;;;;;5091966;28;20549;-64
2022/05/25 01:32:09;;;;;;;21.90;13.57;;;8.40;99.90;;;;;;5091921;28;20504;-64
2022/05/25 01:34:47;;;;;;;20.55;14.73;;;9.00;99.90;;;;;;5091935;28;20048;-64
2022/05/25 01:37:24;;;;;;;21.73;15.10;;;8.70;99.90;;;;;;5090916;28;20048;-63
2022/05/25 01:40:08;;;;;;;21.75;15.00;;;8.60;99.90;;;;;;5091983;28;20048;-63
2022/05/25 01:42:42;;;;;;;21.60;15.18;;;8.70;99.90;;;;;;5091999;28;20104;-64
2022/05/25 01:45:09;;;;;;;28.00;15.45;;;9.10;99.90;;;;;;5091688;28;20516;-64
2022/05/25 01:47:39;;;;;;;24.98;14.43;;;8.50;99.90;;;;;;5091926;28;20048;-63
2022/05/25 01:50:13;;;;;;;24.40;14.75;;;8.70;99.90;;;;;;5091869;28;20048;-64
2022/05/25 01:52:45;;;;;;;23.45;14.77;;;8.60;99.90;;;;;;5091838;28;20052;-64
2022/05/25 01:55:20;;;;;;;20.98;14.77;;;8.60;99.90;;;;;;5095014;28;20432;-64
2022/05/25 01:57:50;;;;;;;20.35;15.18;;;8.60;99.90;;;;;;5095214;28;20515;-64
2022/05/25 02:00:32;;;;;;;23.30;15.38;;;8.60;99.90;;;;;;5095399;28;20395;-64
2022/05/25 02:06:03;;;;;;;21.92;15.60;;;8.90;99.90;;;;;;5095107;28;20117;-64
2022/05/25 02:08:47;;;;;;;23.63;16.45;;;8.70;99.90;;;;;;5073551;28;20094;-64
2022/05/25 02:11:30;;;;;;;24.83;16.38;;;8.60;99.90;;;;;;5094907;28;20055;-64
2022/05/25 02:14:37;;;;;;;24.20;17.80;;;8.70;99.90;;;;;;5095045;28;20043;-64
2022/05/25 02:17:36;;;;;;;28.40;18.58;;;8.70;99.90;;;;;;5089220;28;20059;-64
2022/05/25 02:20:14;;;;;;;28.20;17.60;;;8.40;99.90;;;;;;5093865;28;20060;-64
2022/05/25 02:22:44;;;;;;;27.02;17.70;;;8.50;99.90;;;;;;5093769;28;20449;-65
2022/05/25 02:25:33;;;;;;;26.52;17.77;;;8.80;99.90;;;;;;5094961;28;20044;-65
2022/05/25 02:28:17;;;;;;;24.90;17.08;;;8.80;99.90;;;;;;5094782;28;20126;-64
2022/05/25 02:30:50;;;;;;;35.90;18.08;;;8.70;99.90;;;;;;5094405;28;20056;-65
2022/05/25 02:33:23;;;;;;;27.95;17.90;;;8.50;99.90;;;;;;5094622;28;20048;-64
2022/05/25 02:35:51;;;;;;;25.23;17.92;;;8.40;99.90;;;;;;5094782;28;20044;-64
2022/05/25 02:38:17;;;;;;;30.40;18.20;;;8.50;99.90;;;;;;5094705;28;20122;-64
2022/05/25 02:40:43;;;;;;;30.75;18.75;;;8.80;99.90;;;;;;5094562;28;20081;-65
2022/05/25 02:43:10;;;;;;;30.10;17.75;;;8.70;99.90;;;;;;5094451;28;20106;-63
2022/05/25 02:45:38;;;;;;;29.05;17.55;;;8.60;99.90;;;;;;5094191;28;20087;-64
2022/05/25 02:48:04;;;;;;;28.65;17.17;;;8.70;99.90;;;;;;5094527;28;20125;-64
2022/05/25 02:50:30;;;;;;;30.95;18.17;;;8.50;99.90;;;;;;5094374;28;20126;-64
2022/05/25 02:52:56;;;;;;;29.58;18.08;;;8.50;99.90;;;;;;5094309;28;20131;-64
2022/05/25 02:55:22;;;;;;;30.65;18.02;;;8.10;99.90;;;;;;5094336;28;20052;-64
2022/05/25 02:57:48;;;;;;;31.38;19.20;;;8.60;99.90;;;;;;5094200;28;20051;-67
2022/05/25 03:00:14;;;;;;;27.02;18.13;;;9.60;99.90;;;;;;5093061;28;20071;-67
2022/05/25 03:02:40;;;;;;;;;;;8.60;99.90;;;;;;5094468;28;20123;-64
2022/05/25 03:05:07;;;;;;;28.45;17.90;;;8.70;99.90;;;;;;5092842;28;19959;-64
2022/05/25 03:07:34;;;;;;;31.40;19.02;;;8.30;99.90;;;;;;5093910;28;20067;-66
2022/05/25 03:10:00;;;;;;;33.80;18.80;;;9.60;99.90;;;;;;5093878;28;20047;-64
2022/05/25 03:12:26;;;;;;;28.10;18.25;;;8.40;99.90;;;;;;5093957;28;20044;-64
2022/05/25 03:14:51;;;;;;;32.90;19.23;;;8.50;99.90;;;;;;5093779;28;20376;-64
2022/05/25 03:17:17;;;;;;;29.95;19.63;;;8.40;99.90;;;;;;5092825;28;20480;-64
2022/05/25 03:19:53;;;;;;;33.83;19.92;;;8.50;99.90;;;;;;5093639;28;20143;-64
2022/05/25 03:22:19;;;;;;;35.75;19.40;;;8.70;99.90;;;;;;5093903;28;20052;-65
2022/05/25 03:24:45;;;;;;;32.20;20.50;;;8.50;99.90;;;;;;5092391;28;20040;-64
2022/05/25 03:27:11;;;;;;;38.22;19.75;;;8.40;99.90;;;;;;5093548;28;20055;-64
2022/05/25 03:29:37;;;;;;;34.03;19.58;;;8.40;99.90;;;;;;5092193;28;20442;-63
2022/05/25 03:32:03;;;;;;;34.58;19.38;;;8.40;99.90;;;;;;5093688;28;20131;-64
2022/05/25 03:34:28;;;;;;;31.77;19.88;;;8.70;99.90;;;;;;5093690;28;20063;-67
2022/05/25 03:36:57;;;;;;;30.80;19.52;;;8.50;99.90;;;;;;5093535;28;20462;-64
2022/05/25 03:39:23;;;;;;;34.78;20.05;;;8.60;99.90;;;;;;5093329;28;20044;-64
2022/05/25 03:42:08;;;;;;;33.92;19.25;;;;;;;;;;5093149;28;20446;-64
2022/05/25 03:44:35;;;;;;;36.05;20.92;;;8.70;99.90;;;;;;5093358;28;20566;-64
2022/05/25 03:47:01;;;;;;;33.97;19.48;;;;;;;;;;5093344;28;20051;-64
2022/05/25 03:49:27;;;;;;;39.97;20.20;;;8.70;99.90;;;;;;5093239;28;20430;-63
2022/05/25 03:51:53;;;;;;;41.97;21.35;;;8.50;99.90;;;;;;5093182;28;20050;-63
2022/05/25 03:54:18;;;;;;;;;;;8.90;99.90;;;;;;5093556;28;20044;-66
2022/05/25 03:56:44;;;;;;;37.63;21.20;;;8.40;99.90;;;;;;5092968;28;19975;-63
2022/05/25 03:59:10;;;;;;;33.28;20.40;;;8.70;99.90;;;;;;5092912;28;20048;-64
2022/05/25 04:01:37;;;;;;;41.58;21.70;;;8.40;99.90;;;;;;5092887;28;20063;-64
2022/05/25 04:04:03;;;;;;;37.50;20.58;;;8.90;99.90;;;;;;5092874;28;20085;-64
2022/05/25 04:06:29;;;;;;;35.17;19.88;;;8.50;99.90;;;;;;5091893;28;20055;-65
2022/05/25 04:08:55;;;;;;;37.42;20.80;;;8.60;99.90;;;;;;5092906;28;20054;-63
2022/05/25 04:11:20;;;;;;;35.10;21.65;;;8.60;99.90;;;;;;5092522;28;20388;-64
2022/05/25 04:13:46;;;;;;;39.17;21.20;;;8.70;99.90;;;;;;5093006;28;20423;-64
2022/05/25 04:16:12;;;;;;;42.90;22.20;;;9.00;99.90;;;;;;5092281;28;20047;-64
2022/05/25 04:18:38;;;;;;;35.53;21.33;;;8.60;99.90;;;;;;5091570;28;20059;-64
2022/05/25 04:21:04;;;;;;;44.10;22.38;;;8.70;99.90;;;;;;5092621;28;20036;-64
2022/05/25 04:23:29;;;;;;;42.83;21.70;;;8.60;99.90;;;;;;5092662;28;20051;-64
2022/05/25 04:25:56;;;;;;;45.08;23.10;;;8.80;99.90;;;;;;5092603;28;20102;-64
2022/05/25 04:28:22;;;;;;;40.97;22.35;;;9.30;99.90;;;;;;5092571;28;20480;-64
2022/05/25 04:30:48;;;;;;;;;;;9.00;99.90;;;;;;5093003;28;20060;-64
2022/05/25 04:33:14;;;;;;;37.55;22.42;;;8.80;99.90;;;;;;5092531;28;19924;-63
2022/05/25 04:35:41;;;;;;;42.10;22.70;;;9.10;99.90;;;;;;5092516;28;20140;-64
2022/05/25 04:38:07;;;;;;;;;;;9.30;99.90;;;;;;5092866;28;20063;-63
2022/05/25 04:40:38;;;;;;;42.35;22.80;;;9.20;99.90;;;;;;5092342;28;20376;-64
2022/05/25 04:43:12;;;;;;;48.17;24.00;;;9.50;99.90;;;;;;5092447;28;20044;-64
2022/05/25 04:45:40;;;;;;;44.10;23.60;;;9.50;99.90;;;;;;5092546;28;20055;-64
2022/05/25 04:48:06;;;;;;;49.45;24.27;;;10.10;99.90;;;;;;5092487;28;20131;-64
2022/05/25 04:50:33;;;;;;;;;;;9.40;99.90;;;;;;5092710;28;20455;-64
2022/05/25 04:53:00;;;;;;;43.88;23.63;;;9.50;99.90;;;;;;5092321;28;20587;-63
2022/05/25 04:58:18;;;;;;;49.15;25.02;;;9.70;99.90;;;;;;5092502;28;20104;-65
2022/05/25 05:00:44;;;;;;;49.50;24.77;;;9.90;99.90;;;;;;5092214;28;20040;-64
2022/05/25 05:03:10;;;;;;;48.63;24.33;;;9.80;99.90;;;;;;5092221;28;20396;-65
2022/05/25 05:05:35;;;;;;;46.70;24.52;;;9.70;99.90;;;;;;5092170;28;20036;-64
2022/05/25 05:08:01;;;;;;;45.33;23.85;;;10.10;99.90;;;;;;5092325;28;20465;-64
2022/05/25 05:10:27;;;;;;;51.70;25.38;;;9.80;99.90;;;;;;5092222;28;20041;-64
2022/05/25 05:12:52;;;;;;;46.20;24.90;;;9.80;99.90;;;;;;5092014;28;20089;-63
2022/05/25 05:15:18;;;;;;;47.30;24.50;;;9.90;99.90;;;;;;5092195;28;20051;-64
2022/05/25 05:17:44;;;;;;;47.28;24.63;;;10.30;99.90;;;;;;5092113;28;20037;-64
2022/05/25 05:20:10;;;;;;;42.95;23.30;;;10.40;99.90;;;;;;5090680;28;20051;-64
2022/05/25 05:22:36;;;;;;;48.22;24.95;;;10.60;99.90;;;;;;5092263;28;20048;-65
2022/05/25 05:25:03;;;;;;;41.45;23.85;;;10.40;99.90;;;;;;5091132;28;20042;-65
2022/05/25 05:27:29;;;;;;;54.20;23.67;;;10.50;99.90;;;;;;5092042;28;20047;-64
2022/05/25 05:29:58;;;;;;;38.90;23.38;;;10.50;99.90;;;;;;5094654;28;20052;-65
2022/05/25 05:32:25;;;;;;;42.15;23.27;;;10.60;99.90;;;;;;5095708;28;20052;-64
2022/05/25 05:34:51;;;;;;;41.38;22.83;;;12.00;99.90;;;;;;5095659;28;20051;-64
2022/05/25 05:37:26;;;;;;;37.70;20.00;;;10.60;99.90;;;;;;5095880;28;20051;-64
2022/05/25 05:39:54;;;;;;;36.33;20.27;;;11.10;99.90;;;;;;5077881;28;20058;-65
2022/05/25 05:42:22;;;;;;;35.88;20.65;;;11.20;99.90;;;;;;5090682;28;20151;-64
2022/05/25 05:45:01;;;;;;;35.47;19.35;;;11.10;99.90;;;;;;5094136;28;20047;-65
2022/05/25 05:47:41;;;;;;;35.50;19.52;;;11.70;99.90;;;;;;5092470;28;20111;-63
2022/05/25 05:50:08;;;;;;;32.20;19.75;;;11.60;99.90;;;;;;5093711;28;20373;-65
2022/05/25 05:52:35;;;;;;;31.70;18.88;;;11.60;99.90;;;;;;5092355;28;20496;-64
2022/05/25 05:55:03;;;;;;;36.78;19.20;;;11.90;99.90;;;;;;5093401;28;20105;-64
2022/05/25 05:57:29;;;;;;;32.80;19.25;;;11.50;99.90;;;;;;5094001;28;20051;-65
2022/05/25 05:59:54;;;;;;;28.85;18.40;;;12.10;99.90;;;;;;5093910;28;20044;-64
2022/05/25 06:02:20;;;;;;;29.65;17.23;;;11.80;99.90;;;;;;5091741;28;20807;-65
2022/05/25 06:04:46;;;;;;;32.80;18.02;;;12.20;99.90;;;;;;5092550;28;20389;-66
2022/05/25 06:07:12;;;;;;;31.08;17.80;;;12.20;99.90;;;;;;5094147;28;20078;-64
2022/05/25 06:09:37;;;;;;;26.38;16.05;;;12.40;99.90;;;;;;5092859;28;20047;-65
2022/05/25 06:12:03;;;;;;;26.75;16.13;;;13.40;99.90;;;;;;5092079;28;20472;-65
2022/05/25 06:14:29;;;;;;;24.27;16.38;;;12.50;99.90;;;;;;5093711;28;20396;-66
2022/05/25 06:19:39;;;;;;;24.08;13.82;;;13.80;99.90;;;;;;5073489;28;20059;-66
2022/05/25 06:22:08;;;;;;;22.70;14.40;;;12.70;99.90;;;;;;5091713;28;20040;-64
2022/05/25 06:24:40;;;;;;;25.45;14.68;;;12.90;99.90;;;;;;5094744;28;20052;-65
2022/05/25 06:27:11;;;;;;;21.00;13.30;;;13.00;99.90;;;;;;5094875;28;20403;-64
2022/05/25 06:29:40;;;;;;;21.10;13.93;;;12.90;99.90;;;;;;5094496;28;20507;-64
2022/05/25 06:32:08;;;;;;;16.83;11.27;;;13.40;99.90;;;;;;5093806;28;20051;-64
2022/05/25 06:34:34;;;;;;;20.58;12.20;;;12.80;99.90;;;;;;5094587;28;20051;-64
2022/05/25 06:37:00;;;;;;;20.52;12.00;;;13.20;99.90;;;;;;5094591;28;20063;-64
2022/05/25 06:39:27;;;;;;;17.88;10.48;;;13.70;99.90;;;;;;5093935;28;20407;-65
2022/05/25 06:41:53;;;;;;;16.15;9.80;;;13.80;99.90;;;;;;5093747;28;20108;-65
2022/05/25 06:44:19;;;;;;;15.02;10.55;;;15.40;99.90;;;;;;5094530;28;20097;-66
2022/05/25 06:46:46;;;;;;;15.13;10.48;;;13.80;99.90;;;;;;5094632;28;20044;-65
2022/05/25 06:49:11;;;;;;;;;;;13.70;99.90;;;;;;5094738;28;20500;-67
2022/05/25 06:51:37;;;;;;;13.85;9.77;;;13.80;99.90;;;;;;5094148;28;19966;-66
2022/05/25 06:54:03;;;;;;;15.35;10.10;;;13.80;99.90;;;;;;5094197;28;20055;-64
2022/05/25 06:56:29;;;;;;;14.80;8.90;;;14.10;99.90;;;;;;5094269;28;20052;-65
2022/05/25 06:58:56;;;;;;;9.88;7.55;;;14.20;99.90;;;;;;5094596;28;20056;-65
2022/05/25 07:01:23;;;;;;;13.57;8.00;;;14.20;99.90;;;;;;5094271;28;20047;-67
2022/05/25 07:03:49;;;;;;;15.63;7.90;;;14.00;99.90;;;;;;5094081;28;20054;-66
2022/05/25 07:06:17;;;;;;;10.68;7.28;;;14.30;99.90;;;;;;5093940;28;20040;-66
2022/05/25 07:08:43;;;;;;;10.38;7.30;;;14.30;99.90;;;;;;5093832;28;20060;-67
2022/05/25 07:11:11;;;;;;;12.05;7.55;;;14.40;99.90;;;;;;5093773;28;20124;-64
2022/05/25 07:13:37;;;;;;;12.15;7.60;;;14.20;99.90;;;;;;5094036;28;20185;-66
2022/05/25 07:16:05;;;;;;;12.65;8.25;;;14.50;99.90;;;;;;5093974;28;20131;-64
2022/05/25 07:18:31;;;;;;;14.57;8.07;;;14.70;99.90;;;;;;5093743;28;20040;-65
2022/05/25 07:21:09;;;;;;;9.30;7.35;;;14.60;99.90;;;;;;5092462;28;20039;-67
2022/05/25 07:23:36;;;;;;;11.88;7.22;;;14.80;99.90;;;;;;5093645;28;20055;-65
2022/05/25 07:26:03;;;;;;;13.50;7.30;;;14.70;99.90;;;;;;5093828;28;20078;-67
2022/05/25 07:28:31;;;;;;;14.93;7.70;;;15.00;99.90;;;;;;5093517;28;20138;-66
2022/05/25 07:31:03;;;;;;;11.05;8.05;;;14.80;99.90;;;;;;5093252;28;20055;-66
2022/05/25 07:33:29;;;;;;;13.27;7.75;;;15.30;99.90;;;;;;5093570;28;20047;-66
2022/05/25 07:35:55;;;;;;;10.52;6.57;;;15.00;99.90;;;;;;5093334;28;20133;-66
2022/05/25 07:38:21;;;;;;;12.15;6.25;;;15.30;99.90;;;;;;5093592;28;20079;-66
2022/05/25 07:40:48;;;;;;;11.77;7.10;;;15.60;99.90;;;;;;5093381;28;20050;-65
2022/05/25 07:43:18;;;;;;;18.35;6.03;;;15.70;99.90;;;;;;5092184;28;20056;-64
2022/05/25 07:45:45;;;;;;;8.07;5.47;;;15.20;99.90;;;;;;5093198;28;20051;-64
2022/05/25 07:48:12;;;;;;;8.27;6.05;;;15.40;99.90;;;;;;5093080;28;20130;-65
2022/05/25 07:50:38;;;;;;;9.23;6.00;;;15.50;99.90;;;;;;5093004;28;20047;-66
2022/05/25 07:53:55;;;;;;;9.45;6.57;;;17.00;99.90;;;;;;5091570;28;20044;-66
2022/05/25 07:55:52;;;;;;;7.00;6.28;;;15.80;99.90;;;;;;5093077;28;20056;-64
2022/05/25 07:58:18;;;;;;;10.48;7.07;;;15.90;99.90;;;;;;5093048;28;20048;-66
2022/05/25 08:00:43;;;;;;;10.43;6.00;;;15.90;99.90;;;;;;5092937;28;20093;-66
2022/05/25 08:05:56;;;;;;;10.90;6.03;;;15.90;99.90;;;;;;5091951;28;20083;-67
2022/05/25 08:08:24;;;;;;;7.78;5.65;;;16.40;99.90;;;;;;5092955;28;20068;-68
2022/05/25 08:11:02;;;;;;;8.60;6.68;;;16.20;99.90;;;;;;5092770;28;20052;-66
2022/05/25 08:13:30;;;;;;;7.72;6.93;;;16.50;99.90;;;;;;5091885;28;20051;-66
2022/05/25 08:15:56;;;;;;;8.82;7.22;;;16.70;99.90;;;;;;5092608;28;20051;-65
2022/05/25 08:18:23;;;;;;;7.38;6.47;;;16.60;99.90;;;;;;5092741;28;20078;-68
2022/05/25 08:20:48;;;;;;;10.50;7.18;;;16.60;99.90;;;;;;5091855;28;20135;-66
2022/05/25 08:23:15;;;;;;;;;;;16.70;99.90;;;;;;5093102;28;20130;-66
2022/05/25 08:25:42;;;;;;;13.75;6.82;;;16.70;99.90;;;;;;5092541;28;19920;-66
2022/05/25 08:28:08;;;;;;;12.35;8.18;;;17.10;99.90;;;;;;5092545;28;20512;-68
2022/05/25 08:30:35;;;;;;;;;;;17.00;99.90;;;;;;5093068;28;20048;-67
2022/05/25 08:33:01;;;;;;;6.60;4.47;;;17.40;99.90;;;;;;5092684;28;20011;-65
2022/05/25 08:35:27;;;;;;;11.25;5.93;;;17.10;99.90;;;;;;5092589;28;20055;-64
2022/05/25 08:37:53;;;;;;;13.32;6.43;;;17.10;99.90;;;;;;5092426;28;20063;-67
2022/05/25 08:40:21;;;;;;;11.38;6.05;;;17.10;99.90;;;;;;5092268;28;20503;-66
2022/05/25 08:43:28;;;;;;;9.50;5.93;;;16.70;99.90;;;;;;5092596;28;20052;-65
2022/05/25 08:45:58;;;;;;;10.23;6.50;;;16.40;99.90;;;;;;5081260;28;20515;-66
2022/05/25 08:48:25;;;;;;;6.63;5.72;;;16.80;99.90;;;;;;5092410;28;20090;-67
2022/05/25 08:50:57;;;;;;;6.30;5.47;;;16.80;99.90;;;;;;5092160;28;20488;-67
2022/05/25 08:53:24;;;;;;;5.15;4.30;;;16.80;99.90;;;;;;5091199;28;20505;-66
2022/05/25 08:56:17;;;;;;;7.13;4.40;;;16.50;99.90;;;;;;5091252;28;20105;-65
2022/05/25 08:59:04;;;;;;;6.25;4.43;;;15.90;99.90;;;;;;5091022;28;20047;-67
2022/05/25 09:01:41;;;;;;;5.77;4.53;;;16.10;99.90;;;;;;5125484;28;20043;-67
2022/05/25 09:04:21;;;;;;;5.55;4.53;;;15.10;99.90;;;;;;5095811;28;20044;-67
2022/05/25 09:07:05;;;;;;;5.00;4.50;;;16.20;99.90;;;;;;5096499;28;20044;-65
2022/05/25 09:09:49;;;;;;;6.20;3.97;;;16.20;99.90;;;;;;5096209;28;20480;-64
2022/05/25 09:12:15;;;;;;;4.80;4.20;;;16.30;99.90;;;;;;5096259;28;20127;-64
2022/05/25 09:14:52;;;;;;;;;;;16.00;99.90;;;;;;5096798;28;20094;-65
2022/05/25 09:17:47;;;;;;;10.30;5.25;;;16.20;99.90;;;;;;5093252;28;19924;-68
2022/05/25 09:20:16;;;;;;;10.15;3.75;;;16.50;99.90;;;;;;5094044;28;20492;-69
2022/05/25 09:22:43;;;;;;;9.98;3.80;;;16.60;99.90;;;;;;5093844;28;20579;-64
2022/05/25 09:25:12;;;;;;;7.80;3.95;;;16.20;99.90;;;;;;5094652;28;20047;-67
2022/05/25 09:27:56;;;;;;;8.77;4.90;;;16.10;99.90;;;;;;5096046;28;20084;-64
2022/05/25 09:30:23;;;;;;;8.25;4.97;;;16.40;99.90;;;;;;5095584;28;20135;-66
2022/05/25 09:32:52;;;;;;;7.90;5.30;;;16.70;99.90;;;;;;5095989;28;20048;-67
2022/05/25 09:35:25;;;;;;;9.23;5.43;;;16.50;99.90;;;;;;5095968;28;20043;-66
2022/05/25 09:38:13;;;;;;;9.05;5.38;;;16.60;99.90;;;;;;5095880;28;20044;-67
2022/05/25 09:40:50;;;;;;;6.13;5.53;;;16.60;99.90;;;;;;5095727;28;20089;-69
2022/05/25 09:43:22;;;;;;;7.38;4.75;;;16.20;99.90;;;;;;5095617;28;20058;-66
2022/05/25 09:45:57;;;;;;;9.00;5.32;;;16.20;99.90;;;;;;5095738;28;20055;-66
2022/05/25 09:48:26;;;;;;;11.32;5.80;;;16.30;99.90;;;;;;5095625;28;20083;-65
2022/05/25 09:51:02;;;;;;;8.38;5.70;;;18.00;99.90;;;;;;5095432;28;20119;-64
2022/05/25 09:53:55;;;;;;;9.15;6.40;;;16.60;99.90;;;;;;5095561;28;20158;-64
2022/05/25 09:56:32;;;;;;;9.85;7.15;;;16.20;99.90;;;;;;5095374;28;20507;-63
2022/05/25 09:59:06;;;;;;;8.88;6.28;;;16.30;99.90;;;;;;5095487;28;20050;-64
2022/05/25 10:01:40;;;;;;;8.85;7.25;;;16.30;99.90;;;;;;5095382;28;20052;-64
2022/05/25 10:04:08;;;;;;;14.43;7.85;;;16.30;99.90;;;;;;5095355;28;20130;-65
2022/05/25 10:06:44;;;;;;;13.50;7.57;;;16.80;99.90;;;;;;5095245;28;20466;-70
2022/05/25 10:09:17;;;;;;;;;;;17.10;99.90;;;;;;5095646;28;20478;-67
2022/05/25 10:11:54;;;;;;;12.60;7.78;;;17.10;99.90;;;;;;5095042;28;19973;-64
2022/05/25 10:14:31;;;;;;;11.40;7.22;;;17.40;99.90;;;;;;5094260;28;20055;-67
2022/05/25 10:17:29;;;;;;;10.48;7.25;;;17.60;99.90;;;;;;5095143;28;20476;-65
2022/05/25 10:19:57;;;;;;;9.45;6.78;;;17.90;99.90;;;;;;5090870;28;20052;-66
2022/05/25 10:22:38;;;;;;;9.65;7.70;;;17.80;99.90;;;;;;5094825;28;20127;-65
2022/05/25 10:25:27;;;;;;;12.50;8.85;;;17.30;99.90;;;;;;5095138;28;20066;-66
2022/05/25 10:27:53;;;;;;;19.83;12.75;;;16.70;99.90;;;;;;5095060;28;20040;-67
2022/05/25 10:39:16;;;;;;;19.42;13.07;;;15.60;99.90;;;;;;5094535;28;20059;-66
2022/05/25 10:41:43;;;;;;;14.35;11.73;;;15.80;99.90;;;;;;5093770;28;20102;-68
2022/05/25 10:44:22;;;;;;;10.38;9.02;;;16.00;99.90;;;;;;5094523;28;20052;-67
2022/05/25 10:46:57;;;;;;;12.25;8.20;;;16.20;99.90;;;;;;5094532;28;20036;-65
2022/05/25 10:49:38;;;;;;;7.60;6.03;;;16.00;99.90;;;;;;5094462;28;20050;-65
2022/05/25 10:52:20;;;;;;;11.48;6.53;;;16.20;99.90;;;;;;5094237;28;20459;-66
2022/05/25 10:54:50;;;;;;;10.73;6.07;;;15.60;99.90;;;;;;5094376;28;20048;-65
2022/05/25 10:57:54;;;;;;;5.88;3.60;;;15.30;99.90;;;;;;5094078;28;20542;-67
2022/05/25 11:00:46;;;;;;;4.57;2.60;;;14.60;99.90;;;;;;5094237;28;20055;-65
2022/05/25 11:03:52;;;;;;;3.20;1.75;;;14.50;99.90;;;;;;5074455;28;20063;-67
2022/05/25 11:06:52;;;;;;;4.25;2.00;;;14.40;99.90;;;;;;5093972;28;20048;-65
2022/05/25 11:09:55;;;;;;;4.32;1.98;;;14.40;99.90;;;;;;5094011;28;20052;-68
2022/05/25 11:12:44;;;;;;;2.33;1.60;;;15.00;99.90;;;;;;5093776;28;20052;-67
2022/05/25 11:15:18;;;;;;;2.08;1.80;;;15.50;99.90;;;;;;5073941;28;20129;-68
2022/05/25 11:17:55;;;;;;;7.75;2.10;;;15.10;99.90;;;;;;5093976;28;20087;-68
2022/05/25 11:20:47;;;;;;;6.35;2.13;;;15.00;99.90;;;;;;5093830;28;20044;-67
2022/05/25 11:23:22;;;;;;;3.03;2.30;;;15.10;99.90;;;;;;5093518;28;20499;-66
2022/05/25 11:26:18;;;;;;;2.45;2.25;;;14.60;99.90;;;;;;5093764;28;20059;-67
2022/05/25 11:28:50;;;;;;;3.35;2.42;;;15.20;99.90;;;;;;5092308;28;20055;-66
2022/05/25 11:31:49;;;;;;;4.00;2.67;;;15.20;99.90;;;;;;5093390;28;20085;-66
2022/05/25 11:34:42;;;;;;;4.57;3.40;;;15.30;99.90;;;;;;5093620;28;20105;-66
2022/05/25 11:37:13;;;;;;;6.47;4.82;;;16.10;99.90;;;;;;5093586;28;20046;-64
2022/05/25 11:40:01;;;;;;;11.75;8.57;;;16.60;99.90;;;;;;5093281;28;20048;-65
2022/05/25 11:42:41;;;;;;;12.43;10.15;;;17.00;99.90;;;;;;5093633;28;20048;-66
2022/05/25 11:45:42;;;;;;;13.20;10.15;;;17.50;99.90;;;;;;5093492;28;20204;-67
2022/05/25 11:48:17;;;;;;;13.07;11.05;;;17.70;99.90;;;;;;5093106;28;20047;-64
2022/05/25 11:50:58;;;;;;;14.45;9.95;;;17.80;99.90;;;;;;5093376;28;20036;-66
2022/05/25 11:53:32;;;;;;;13.02;10.73;;;18.10;99.90;;;;;;5093149;28;20115;-66
2022/05/25 11:56:15;;;;;;;11.52;9.00;;;18.00;99.90;;;;;;5092171;28;20373;-67
2022/05/25 11:59:05;;;;;;;14.80;9.82;;;18.00;99.90;;;;;;5093399;28;20095;-67
2022/05/25 12:01:43;;;;;;;10.48;8.77;;;18.10;99.90;;;;;;5093127;28;20105;-68
2022/05/25 12:04:30;;;;;;;12.80;5.45;;;18.20;99.90;;;;;;5093067;28;20056;-63
2022/05/25 12:07:20;;;;;;;5.95;2.22;;;18.00;99.90;;;;;;5092996;28;20048;-65
2022/05/25 12:10:19;;;;;;;14.95;1.88;;;18.50;99.90;;;;;;5093093;28;20051;-66
2022/05/25 12:13:14;;;;;;;3.72;1.48;;;18.10;99.90;;;;;;5092987;28;20052;-67
2022/05/25 12:16:07;;;;;;;4.13;1.73;;;17.80;99.90;;;;;;5093076;28;20079;-64
2022/05/25 12:18:56;;;;;;;5.65;1.73;;;18.20;99.90;;;;;;5092867;28;20052;-63
2022/05/25 12:21:26;;;;;;;5.18;1.10;;;18.20;99.90;;;;;;5092623;28;20094;-64
2022/05/25 12:24:01;;;;;;;7.30;1.30;;;18.40;99.90;;;;;;5092759;28;20040;-66
2022/05/25 12:26:31;;;;;;;6.85;1.50;;;18.10;99.90;;;;;;5092843;28;20055;-66
2022/05/25 12:29:15;;;;;;;2.20;1.00;;;18.50;99.90;;;;;;5092515;28;20044;-65
2022/05/25 12:31:44;;;;;;;4.68;1.50;;;18.60;99.90;;;;;;5092481;28;20052;-66
2022/05/25 12:34:14;;;;;;;4.93;1.52;;;18.10;99.90;;;;;;5092797;28;20052;-64
2022/05/25 12:36:42;;;;;;;3.40;1.13;;;18.20;99.90;;;;;;5092381;28;20518;-66
2022/05/25 12:39:11;;;;;;;7.05;1.30;;;18.00;99.90;;;;;;5091249;28;20434;-64
2022/05/25 12:41:39;;;;;;;3.55;1.40;;;17.80;99.90;;;;;;5092470;28;20120;-64
2022/05/25 12:49:59;;;;;;;9.82;1.50;;;18.60;99.90;;;;;;5091218;28;20408;-65
2022/05/25 12:52:28;;;;;;;5.47;1.35;;;18.30;99.90;;;;;;5091105;28;20048;-66
2022/05/25 12:55:01;;;;;;;8.30;1.30;;;18.40;99.90;;;;;;5092224;28;20043;-65
2022/05/25 12:57:50;;;;;;;3.67;1.13;;;18.30;99.90;;;;;;5092485;28;20101;-66
2022/05/25 13:00:39;;;;;;;5.43;1.52;;;18.00;99.90;;;;;;5092361;28;20044;-66
2022/05/25 13:03:22;;;;;;;7.78;1.35;;;17.90;99.90;;;;;;5092170;28;20040;-65
2022/05/25 13:05:47;;;;;;;12.68;1.83;;;17.80;99.90;;;;;;5092359;28;20453;-64
2022/05/25 13:08:47;;;;;;;6.20;1.42;;;18.00;99.90;;;;;;5092130;28;20047;-65
2022/05/25 13:11:33;;;;;;;12.98;1.10;;;18.00;99.90;;;;;;5092067;28;20480;-64
2022/05/25 13:14:06;;;;;;;4.20;1.60;;;18.30;99.90;;;;;;5091130;28;20044;-65
2022/05/25 13:16:41;;;;;;;5.40;1.10;;;17.90;99.90;;;;;;5092276;28;20052;-65
2022/05/25 13:19:32;;;;;;;6.18;1.60;;;17.80;99.90;;;;;;5092169;28;20091;-66
2022/05/25 13:22:05;;;;;;;5.35;1.10;;;17.80;99.90;;;;;;5089769;28;20048;-66
2022/05/25 13:24:56;;;;;;;3.40;1.20;;;18.00;99.90;;;;;;5092116;28;20074;-66
2022/05/25 13:27:40;;;;;;;6.20;1.23;;;18.30;99.90;;;;;;5092046;28;20048;-64
2022/05/25 13:30:44;;;;;;;3.38;1.20;;;17.60;99.90;;;;;;5092075;28;20067;-67
2022/05/25 13:33:19;;;;;;;7.05;1.33;;;17.50;99.90;;;;;;5092049;28;20097;-65
2022/05/25 13:35:49;;;;;;;4.03;1.08;;;17.40;99.90;;;;;;5090869;28;20065;-64
2022/05/25 13:38:50;;;;;;;4.07;1.30;;;17.10;99.90;;;;;;5091969;28;20484;-65
2022/05/25 13:41:18;;;;;;;6.63;1.20;;;17.10;99.90;;;;;;5089687;28;20048;-64
2022/05/25 13:43:47;;;;;;;4.13;1.40;;;17.40;99.90;;;;;;5092086;28;20044;-64